Emu Arrow — C6OR4 — position and weather

sailwx.info

Track history (hours):
 
Tides and Currents Weather Stations Pressure Air Temp Water Temp Dewpoint Dewpoint Depression Visibility Wind Speed Wind Dir Waves Ship Positions

Emu Arrow

Last reported at 2017-Apr-26 08:33 UTC. Time now 2017-Apr-27 01:32 UTC.
Position S 19°50' E 056°51'.

Length 200 m; draft 12 m.

Type: Cargo ship. MMSI: 309805000.

Date/timePositionNaut miles runAvg speedWind from/ knotsBaromVisibWave heightAir tempDewpointWater temp
2017-Apr-26 08:33S 19°50' E 056°51'411.0
2017-Apr-26 08:13S 19°48' E 056°55'311.5
2017-Apr-26 07:59S 19°47' E 056°58'611.4
2017-Apr-26 07:30S 19°44' E 057°03'511.2
2017-Apr-26 07:00S 19°41' E 057°08'511.0
2017-Apr-26 06:30S 19°39' E 057°13'510.9
2017-Apr-26 06:00S 19°37' E 057°18'510.8
2017-Apr-26 05:30S 19°34' E 057°24'511.0
2017-Apr-26 05:00S 19°32' E 057°29'510.9
2017-Apr-26 04:30S 19°30' E 057°34'611.0
2017-Apr-26 03:59S 19°27' E 057°39'510.9
2017-Apr-26 03:30S 19°24' E 057°44'510.8
2017-Apr-26 03:00S 19°22' E 057°49'611.6
2017-Apr-26 02:29S 19°19' E 057°55'611.8
2017-Apr-26 01:59S 19°16' E 058°01'611.7
2017-Apr-26 01:27S 19°14' E 058°06'612.1
2017-Apr-26 00:56S 19°11' E 058°13'512.4
2017-Apr-26 00:30S 19°08' E 058°17'612.1
2017-Apr-25 23:58S 19°05' E 058°24'612.0
2017-Apr-25 23:29S 19°03' E 058°29'612.4
2017-Apr-25 22:59S 18°60' E 058°35'612.2
2017-Apr-25 22:29S 18°57' E 058°40'612.4
2017-Apr-25 22:00S 18°53' E 058°45'712.4
2017-Apr-25 21:27S 18°49' E 058°51'712.5
2017-Apr-25 20:53S 18°45' E 058°57'512.4
2017-Apr-25 20:29S 18°41' E 059°01'812.2
2017-Apr-25 19:48S 18°37' E 059°08'411.8
2017-Apr-25 19:26S 18°35' E 059°12'1011.6
2017-Apr-25 18:35S 18°29' E 059°21'  
Track history (hours):
 
Tides and Currents Weather Stations Pressure Air Temp Water Temp Dewpoint Dewpoint Depression Visibility Wind Speed Wind Dir Waves Ship Positions

Emu Arrow

Last reported at 2017-Apr-26 08:33 UTC. Time now 2017-Apr-27 01:32 UTC.
Position S 19°50' E 056°51'.

Length 200 m; draft 12 m.

Type: Cargo ship. MMSI: 309805000.

Date/timePositionNaut miles runAvg speedWind from/ knotsBaromVisibWave heightAir tempDewpointWater temp
2017-Apr-26 08:33S 19°50' E 056°51'411.0
2017-Apr-26 08:13S 19°48' E 056°55'311.5
2017-Apr-26 07:59S 19°47' E 056°58'611.4
2017-Apr-26 07:30S 19°44' E 057°03'511.2
2017-Apr-26 07:00S 19°41' E 057°08'511.0
2017-Apr-26 06:30S 19°39' E 057°13'510.9
2017-Apr-26 06:00S 19°37' E 057°18'510.8
2017-Apr-26 05:30S 19°34' E 057°24'511.0
2017-Apr-26 05:00S 19°32' E 057°29'510.9
2017-Apr-26 04:30S 19°30' E 057°34'611.0
2017-Apr-26 03:59S 19°27' E 057°39'510.9
2017-Apr-26 03:30S 19°24' E 057°44'510.8
2017-Apr-26 03:00S 19°22' E 057°49'611.6
2017-Apr-26 02:29S 19°19' E 057°55'611.8
2017-Apr-26 01:59S 19°16' E 058°01'611.7
2017-Apr-26 01:27S 19°14' E 058°06'612.1
2017-Apr-26 00:56S 19°11' E 058°13'512.4
2017-Apr-26 00:30S 19°08' E 058°17'612.1
2017-Apr-25 23:58S 19°05' E 058°24'612.0
2017-Apr-25 23:29S 19°03' E 058°29'612.4
2017-Apr-25 22:59S 18°60' E 058°35'612.2
2017-Apr-25 22:29S 18°57' E 058°40'612.4
2017-Apr-25 22:00S 18°53' E 058°45'712.4
2017-Apr-25 21:27S 18°49' E 058°51'712.5
2017-Apr-25 20:53S 18°45' E 058°57'512.4
2017-Apr-25 20:29S 18°41' E 059°01'812.2
2017-Apr-25 19:48S 18°37' E 059°08'411.8
2017-Apr-25 19:26S 18°35' E 059°12'1011.6
2017-Apr-25 18:35S 18°29' E 059°21'  

Dump ship's entire track history